sensor_id;sensor_type;location;lat;lon;timestamp;P1;durP1;ratioP1;P2;durP2;ratioP2
72123;SDS011;63818;37.134;-8.548;2023-03-14T00:00:15;28.3;;;6.8;;
72123;SDS011;63818;37.134;-8.548;2023-03-14T00:05:02;30.7;;;6.9;;
72123;SDS011;63818;37.134;-8.548;2023-03-14T00:09:53;25.6;;;6.8;;
72123;SDS011;63818;37.134;-8.548;2023-03-14T00:14:41;22.4;;;6.3;;
72123;SDS011;63818;37.134;-8.548;2023-03-14T00:19:29;22.3;;;6.2;;
72123;SDS011;63818;37.134;-8.548;2023-03-14T00:24:16;22.8;;;6.4;;
72123;SDS011;63818;37.134;-8.548;2023-03-14T00:29:09;24.3;;;6.2;;
72123;SDS011;63818;37.134;-8.548;2023-03-14T00:33:56;29.7;;;6.3;;
72123;SDS011;63818;37.134;-8.548;2023-03-14T00:38:45;32.3;;;7.1;;
72123;SDS011;63818;37.134;-8.548;2023-03-14T00:43:33;30.9;;;7.0;;
72123;SDS011;63818;37.134;-8.548;2023-03-14T00:48:20;25.4;;;6.5;;
72123;SDS011;63818;37.134;-8.548;2023-03-14T00:53:05;27.3;;;7.0;;
72123;SDS011;63818;37.134;-8.548;2023-03-14T00:57:55;30.9;;;7.6;;
72123;SDS011;63818;37.134;-8.548;2023-03-14T01:02:41;31.0;;;7.1;;
72123;SDS011;63818;37.134;-8.548;2023-03-14T01:07:27;29.1;;;6.4;;
72123;SDS011;63818;37.134;-8.548;2023-03-14T01:12:13;22.4;;;6.0;;
72123;SDS011;63818;37.134;-8.548;2023-03-14T01:17:01;22.9;;;6.0;;
72123;SDS011;63818;37.134;-8.548;2023-03-14T01:21:46;26.3;;;6.5;;
72123;SDS011;63818;37.134;-8.548;2023-03-14T01:26:34;28.1;;;7.3;;
72123;SDS011;63818;37.134;-8.548;2023-03-14T01:31:21;26.6;;;7.1;;
72123;SDS011;63818;37.134;-8.548;2023-03-14T01:36:10;24.5;;;6.2;;
72123;SDS011;63818;37.134;-8.548;2023-03-14T01:40:56;22.6;;;6.5;;
72123;SDS011;63818;37.134;-8.548;2023-03-14T01:52:21;19.9;;;5.9;;
72123;SDS011;63818;37.134;-8.548;2023-03-14T01:57:11;20.4;;;6.3;;
72123;SDS011;63818;37.134;-8.548;2023-03-14T02:01:59;22.2;;;6.3;;
72123;SDS011;63818;37.134;-8.548;2023-03-14T02:06:49;19.1;;;6.0;;
72123;SDS011;63818;37.134;-8.548;2023-03-14T02:11:38;22.2;;;6.2;;
72123;SDS011;63818;37.134;-8.548;2023-03-14T02:16:26;22.5;;;6.1;;
72123;SDS011;63818;37.134;-8.548;2023-03-14T02:21:14;18.6;;;6.4;;
72123;SDS011;63818;37.134;-8.548;2023-03-14T02:26:08;22.4;;;6.8;;
72123;SDS011;63818;37.134;-8.548;2023-03-14T02:30:58;20.5;;;6.5;;
72123;SDS011;63818;37.134;-8.548;2023-03-14T02:35:45;19.6;;;6.0;;
72123;SDS011;63818;37.134;-8.548;2023-03-14T02:40:35;24.3;;;5.8;;
72123;SDS011;63818;37.134;-8.548;2023-03-14T02:46:44;24.0;;;6.9;;
72123;SDS011;63818;37.134;-8.548;2023-03-14T02:51:33;27.5;;;7.8;;
72123;SDS011;63818;37.134;-8.548;2023-03-14T02:56:21;25.4;;;6.9;;
72123;SDS011;63818;37.134;-8.548;2023-03-14T03:01:11;19.6;;;6.4;;
72123;SDS011;63818;37.134;-8.548;2023-03-14T03:06:00;23.1;;;6.9;;
72123;SDS011;63818;37.134;-8.548;2023-03-14T03:10:56;29.1;;;6.7;;
72123;SDS011;63818;37.134;-8.548;2023-03-14T03:15:41;25.3;;;6.6;;
72123;SDS011;63818;37.134;-8.548;2023-03-14T03:20:30;23.6;;;6.3;;
72123;SDS011;63818;37.134;-8.548;2023-03-14T03:25:17;23.4;;;6.2;;
72123;SDS011;63818;37.134;-8.548;2023-03-14T03:30:03;24.6;;;6.2;;
72123;SDS011;63818;37.134;-8.548;2023-03-14T03:34:49;22.1;;;6.0;;
72123;SDS011;63818;37.134;-8.548;2023-03-14T03:39:41;21.7;;;6.2;;
72123;SDS011;63818;37.134;-8.548;2023-03-14T03:44:30;27.7;;;6.9;;
72123;SDS011;63818;37.134;-8.548;2023-03-14T03:49:16;26.6;;;6.6;;
72123;SDS011;63818;37.134;-8.548;2023-03-14T03:54:25;26.0;;;6.4;;
72123;SDS011;63818;37.134;-8.548;2023-03-14T03:59:12;25.5;;;6.4;;
72123;SDS011;63818;37.134;-8.548;2023-03-14T04:04:01;24.5;;;6.4;;
72123;SDS011;63818;37.134;-8.548;2023-03-14T04:08:50;21.5;;;6.5;;
72123;SDS011;63818;37.134;-8.548;2023-03-14T04:13:41;21.4;;;6.0;;
72123;SDS011;63818;37.134;-8.548;2023-03-14T04:18:27;22.5;;;5.8;;
72123;SDS011;63818;37.134;-8.548;2023-03-14T04:23:16;22.7;;;6.1;;
72123;SDS011;63818;37.134;-8.548;2023-03-14T04:28:02;23.4;;;5.8;;
72123;SDS011;63818;37.134;-8.548;2023-03-14T04:32:48;28.0;;;6.4;;
72123;SDS011;63818;37.134;-8.548;2023-03-14T04:37:36;27.1;;;6.6;;
72123;SDS011;63818;37.134;-8.548;2023-03-14T04:42:27;20.6;;;6.6;;
72123;SDS011;63818;37.134;-8.548;2023-03-14T04:47:13;20.3;;;6.4;;
72123;SDS011;63818;37.134;-8.548;2023-03-14T04:52:32;21.1;;;6.0;;
72123;SDS011;63818;37.134;-8.548;2023-03-14T04:57:21;22.3;;;6.3;;
72123;SDS011;63818;37.134;-8.548;2023-03-14T05:02:11;21.4;;;6.2;;
72123;SDS011;63818;37.134;-8.548;2023-03-14T05:06:57;23.9;;;6.6;;
72123;SDS011;63818;37.134;-8.548;2023-03-14T05:11:46;24.7;;;6.7;;
72123;SDS011;63818;37.134;-8.548;2023-03-14T05:16:32;23.1;;;6.2;;
72123;SDS011;63818;37.134;-8.548;2023-03-14T05:21:18;24.8;;;6.2;;
72123;SDS011;63818;37.134;-8.548;2023-03-14T05:26:16;25.5;;;5.9;;
72123;SDS011;63818;37.134;-8.548;2023-03-14T05:31:02;21.9;;;5.9;;
72123;SDS011;63818;37.134;-8.548;2023-03-14T05:35:51;17.2;;;6.0;;
72123;SDS011;63818;37.134;-8.548;2023-03-14T05:40:38;17.6;;;6.2;;
72123;SDS011;63818;37.134;-8.548;2023-03-14T05:45:26;26.6;;;6.5;;
72123;SDS011;63818;37.134;-8.548;2023-03-14T05:50:14;16.5;;;6.3;;
72123;SDS011;63818;37.134;-8.548;2023-03-14T05:55:07;20.8;;;5.9;;
72123;SDS011;63818;37.134;-8.548;2023-03-14T05:59:56;21.2;;;5.7;;
72123;SDS011;63818;37.134;-8.548;2023-03-14T06:04:47;20.4;;;6.0;;
72123;SDS011;63818;37.134;-8.548;2023-03-14T06:09:34;22.1;;;6.2;;
72123;SDS011;63818;37.134;-8.548;2023-03-14T06:14:20;23.1;;;6.9;;
72123;SDS011;63818;37.134;-8.548;2023-03-14T06:19:08;22.5;;;7.2;;
72123;SDS011;63818;37.134;-8.548;2023-03-14T06:24:08;19.4;;;14.8;;
72123;SDS011;63818;37.134;-8.548;2023-03-14T06:29:03;53.4;;;22.4;;
72123;SDS011;63818;37.134;-8.548;2023-03-14T06:33:58;44.5;;;18.5;;
72123;SDS011;63818;37.134;-8.548;2023-03-14T06:38:44;34.3;;;13.3;;
72123;SDS011;63818;37.134;-8.548;2023-03-14T06:43:31;27.9;;;11.2;;
72123;SDS011;63818;37.134;-8.548;2023-03-14T06:48:17;25.8;;;9.8;;
72123;SDS011;63818;37.134;-8.548;2023-03-14T06:53:06;24.6;;;8.8;;
72123;SDS011;63818;37.134;-8.548;2023-03-14T06:57:54;19.7;;;8.2;;
72123;SDS011;63818;37.134;-8.548;2023-03-14T07:02:40;18.8;;;9.1;;
72123;SDS011;63818;37.134;-8.548;2023-03-14T07:07:28;33.0;;;9.6;;
72123;SDS011;63818;37.134;-8.548;2023-03-14T07:12:16;26.8;;;8.9;;
72123;SDS011;63818;37.134;-8.548;2023-03-14T07:17:02;22.5;;;8.2;;
72123;SDS011;63818;37.134;-8.548;2023-03-14T07:27:02;30.2;;;8.7;;
72123;SDS011;63818;37.134;-8.548;2023-03-14T07:31:50;29.1;;;8.5;;
72123;SDS011;63818;37.134;-8.548;2023-03-14T07:36:36;26.0;;;8.3;;
72123;SDS011;63818;37.134;-8.548;2023-03-14T07:41:22;26.6;;;8.0;;
72123;SDS011;63818;37.134;-8.548;2023-03-14T07:46:09;24.2;;;7.6;;
72123;SDS011;63818;37.134;-8.548;2023-03-14T07:50:55;22.5;;;11.3;;
72123;SDS011;63818;37.134;-8.548;2023-03-14T07:55:42;22.1;;;11.9;;
72123;SDS011;63818;37.134;-8.548;2023-03-14T08:05:39;39.1;;;9.4;;
72123;SDS011;63818;37.134;-8.548;2023-03-14T08:10:27;33.4;;;7.9;;
72123;SDS011;63818;37.134;-8.548;2023-03-14T08:15:13;27.8;;;7.1;;
72123;SDS011;63818;37.134;-8.548;2023-03-14T08:20:07;26.2;;;6.8;;
72123;SDS011;63818;37.134;-8.548;2023-03-14T08:24:53;28.5;;;8.1;;
72123;SDS011;63818;37.134;-8.548;2023-03-14T08:29:47;27.9;;;8.4;;
72123;SDS011;63818;37.134;-8.548;2023-03-14T08:34:35;25.4;;;7.4;;
72123;SDS011;63818;37.134;-8.548;2023-03-14T08:39:21;20.1;;;7.7;;
72123;SDS011;63818;37.134;-8.548;2023-03-14T08:44:07;24.0;;;8.8;;
72123;SDS011;63818;37.134;-8.548;2023-03-14T08:48:53;28.7;;;9.2;;
72123;SDS011;63818;37.134;-8.548;2023-03-14T08:53:41;23.6;;;8.2;;
72123;SDS011;63818;37.134;-8.548;2023-03-14T08:58:28;23.8;;;7.3;;
72123;SDS011;63818;37.134;-8.548;2023-03-14T09:03:14;22.9;;;6.9;;
72123;SDS011;63818;37.134;-8.548;2023-03-14T09:08:02;20.7;;;6.3;;
72123;SDS011;63818;37.134;-8.548;2023-03-14T09:12:48;21.1;;;6.1;;
72123;SDS011;63818;37.134;-8.548;2023-03-14T09:17:33;24.0;;;6.5;;
72123;SDS011;63818;37.134;-8.548;2023-03-14T09:22:22;24.8;;;6.4;;
72123;SDS011;63818;37.134;-8.548;2023-03-14T09:27:10;18.8;;;5.8;;
72123;SDS011;63818;37.134;-8.548;2023-03-14T09:31:58;20.4;;;5.8;;
72123;SDS011;63818;37.134;-8.548;2023-03-14T09:36:47;20.8;;;6.0;;
72123;SDS011;63818;37.134;-8.548;2023-03-14T09:41:34;24.0;;;6.3;;
72123;SDS011;63818;37.134;-8.548;2023-03-14T09:46:22;29.8;;;6.5;;
72123;SDS011;63818;37.134;-8.548;2023-03-14T09:51:15;24.5;;;6.6;;
72123;SDS011;63818;37.134;-8.548;2023-03-14T09:56:07;24.9;;;7.3;;
72123;SDS011;63818;37.134;-8.548;2023-03-14T10:01:18;26.3;;;7.1;;
72123;SDS011;63818;37.134;-8.548;2023-03-14T10:06:11;23.0;;;6.5;;
72123;SDS011;63818;37.134;-8.548;2023-03-14T10:11:01;19.8;;;5.9;;
72123;SDS011;63818;37.134;-8.548;2023-03-14T10:15:51;15.9;;;5.4;;
72123;SDS011;63818;37.134;-8.548;2023-03-14T10:20:39;14.1;;;5.5;;
72123;SDS011;63818;37.134;-8.548;2023-03-14T10:25:31;13.7;;;5.4;;
72123;SDS011;63818;37.134;-8.548;2023-03-14T10:30:29;13.9;;;5.3;;
72123;SDS011;63818;37.134;-8.548;2023-03-14T10:35:26;14.9;;;5.5;;
72123;SDS011;63818;37.134;-8.548;2023-03-14T10:40:14;18.5;;;6.1;;
72123;SDS011;63818;37.134;-8.548;2023-03-14T10:45:01;19.6;;;6.0;;
72123;SDS011;63818;37.134;-8.548;2023-03-14T10:49:49;16.6;;;5.3;;
72123;SDS011;63818;37.134;-8.548;2023-03-14T10:54:36;16.8;;;5.3;;
72123;SDS011;63818;37.134;-8.548;2023-03-14T10:59:22;16.9;;;5.4;;
72123;SDS011;63818;37.134;-8.548;2023-03-14T11:04:17;13.7;;;5.3;;
72123;SDS011;63818;37.134;-8.548;2023-03-14T11:09:17;14.8;;;5.0;;
72123;SDS011;63818;37.134;-8.548;2023-03-14T11:14:12;13.1;;;4.8;;
72123;SDS011;63818;37.134;-8.548;2023-03-14T11:19:12;11.1;;;5.0;;
72123;SDS011;63818;37.134;-8.548;2023-03-14T11:24:08;10.4;;;4.9;;
72123;SDS011;63818;37.134;-8.548;2023-03-14T11:29:02;10.3;;;4.6;;
72123;SDS011;63818;37.134;-8.548;2023-03-14T11:34:04;13.1;;;4.7;;
72123;SDS011;63818;37.134;-8.548;2023-03-14T11:38:58;13.1;;;4.9;;
72123;SDS011;63818;37.134;-8.548;2023-03-14T11:43:47;10.9;;;4.9;;
72123;SDS011;63818;37.134;-8.548;2023-03-14T11:48:37;9.9;;;4.7;;
72123;SDS011;63818;37.134;-8.548;2023-03-14T11:53:34;9.0;;;4.7;;
72123;SDS011;63818;37.134;-8.548;2023-03-14T11:58:31;11.1;;;5.1;;
72123;SDS011;63818;37.134;-8.548;2023-03-14T12:03:23;12.7;;;5.1;;
72123;SDS011;63818;37.134;-8.548;2023-03-14T12:08:21;9.5;;;4.7;;
72123;SDS011;63818;37.134;-8.548;2023-03-14T12:13:13;9.4;;;4.5;;
72123;SDS011;63818;37.134;-8.548;2023-03-14T12:18:11;11.4;;;4.5;;
72123;SDS011;63818;37.134;-8.548;2023-03-14T12:23:05;14.5;;;4.8;;
72123;SDS011;63818;37.134;-8.548;2023-03-14T12:42:13;12.9;;;4.7;;
72123;SDS011;63818;37.134;-8.548;2023-03-14T12:47:26;12.7;;;4.5;;
72123;SDS011;63818;37.134;-8.548;2023-03-14T13:00:59;10.6;;;8.6;;
72123;SDS011;63818;37.134;-8.548;2023-03-14T13:06:00;15.7;;;6.6;;
72123;SDS011;63818;37.134;-8.548;2023-03-14T13:10:48;17.4;;;6.6;;
72123;SDS011;63818;37.134;-8.548;2023-03-14T13:15:44;14.2;;;5.8;;
72123;SDS011;63818;37.134;-8.548;2023-03-14T13:20:31;14.8;;;5.8;;
72123;SDS011;63818;37.134;-8.548;2023-03-14T13:25:19;12.0;;;5.3;;
72123;SDS011;63818;37.134;-8.548;2023-03-14T13:30:18;13.0;;;4.7;;
72123;SDS011;63818;37.134;-8.548;2023-03-14T13:35:39;9.5;;;5.1;;
72123;SDS011;63818;37.134;-8.548;2023-03-14T13:40:28;10.2;;;4.9;;
72123;SDS011;63818;37.134;-8.548;2023-03-14T13:45:17;12.9;;;4.7;;
72123;SDS011;63818;37.134;-8.548;2023-03-14T13:50:11;12.6;;;4.8;;
72123;SDS011;63818;37.134;-8.548;2023-03-14T13:55:04;12.1;;;4.8;;
72123;SDS011;63818;37.134;-8.548;2023-03-14T14:00:03;15.0;;;5.1;;
72123;SDS011;63818;37.134;-8.548;2023-03-14T14:04:50;13.3;;;5.2;;
72123;SDS011;63818;37.134;-8.548;2023-03-14T14:09:39;9.6;;;4.8;;
72123;SDS011;63818;37.134;-8.548;2023-03-14T14:14:56;14.6;;;5.3;;
72123;SDS011;63818;37.134;-8.548;2023-03-14T14:19:49;17.7;;;6.2;;
72123;SDS011;63818;37.134;-8.548;2023-03-14T14:24:38;17.2;;;6.2;;
72123;SDS011;63818;37.134;-8.548;2023-03-14T14:29:27;15.8;;;5.9;;
72123;SDS011;63818;37.134;-8.548;2023-03-14T14:34:19;15.9;;;5.9;;
72123;SDS011;63818;37.134;-8.548;2023-03-14T14:39:14;13.8;;;5.2;;
72123;SDS011;63818;37.134;-8.548;2023-03-14T14:44:04;17.1;;;5.3;;
72123;SDS011;63818;37.134;-8.548;2023-03-14T14:48:50;21.7;;;5.7;;
72123;SDS011;63818;37.134;-8.548;2023-03-14T14:53:43;19.5;;;5.7;;
72123;SDS011;63818;37.134;-8.548;2023-03-14T14:58:33;16.2;;;5.5;;
72123;SDS011;63818;37.134;-8.548;2023-03-14T15:03:24;17.1;;;5.5;;
72123;SDS011;63818;37.134;-8.548;2023-03-14T15:08:19;15.4;;;5.3;;
72123;SDS011;63818;37.134;-8.548;2023-03-14T15:13:08;12.7;;;5.3;;
72123;SDS011;63818;37.134;-8.548;2023-03-14T15:17:56;15.0;;;5.5;;
72123;SDS011;63818;37.134;-8.548;2023-03-14T15:22:43;16.3;;;5.5;;
72123;SDS011;63818;37.134;-8.548;2023-03-14T15:27:32;13.8;;;5.1;;
72123;SDS011;63818;37.134;-8.548;2023-03-14T15:32:26;14.6;;;5.5;;
72123;SDS011;63818;37.134;-8.548;2023-03-14T15:37:40;14.2;;;5.7;;
72123;SDS011;63818;37.134;-8.548;2023-03-14T15:42:29;13.4;;;5.5;;
72123;SDS011;63818;37.134;-8.548;2023-03-14T15:47:17;13.9;;;5.4;;
72123;SDS011;63818;37.134;-8.548;2023-03-14T15:52:34;12.1;;;5.8;;
72123;SDS011;63818;37.134;-8.548;2023-03-14T15:57:19;13.0;;;5.6;;
72123;SDS011;63818;37.134;-8.548;2023-03-14T16:02:06;14.9;;;5.8;;
72123;SDS011;63818;37.134;-8.548;2023-03-14T16:06:53;17.6;;;5.9;;
72123;SDS011;63818;37.134;-8.548;2023-03-14T16:11:40;16.9;;;5.7;;
72123;SDS011;63818;37.134;-8.548;2023-03-14T16:21:45;11.9;;;5.8;;
72123;SDS011;63818;37.134;-8.548;2023-03-14T16:26:41;10.2;;;5.1;;
72123;SDS011;63818;37.134;-8.548;2023-03-14T16:31:29;10.5;;;4.9;;
72123;SDS011;63818;37.134;-8.548;2023-03-14T16:36:16;11.4;;;5.1;;
72123;SDS011;63818;37.134;-8.548;2023-03-14T16:41:30;12.5;;;5.2;;
72123;SDS011;63818;37.134;-8.548;2023-03-14T16:46:15;11.8;;;5.0;;
72123;SDS011;63818;37.134;-8.548;2023-03-14T16:51:20;10.2;;;5.1;;
72123;SDS011;63818;37.134;-8.548;2023-03-14T16:56:05;9.8;;;4.9;;
72123;SDS011;63818;37.134;-8.548;2023-03-14T17:06:09;8.7;;;4.4;;
72123;SDS011;63818;37.134;-8.548;2023-03-14T17:11:07;9.5;;;4.5;;
72123;SDS011;63818;37.134;-8.548;2023-03-14T17:16:21;14.6;;;4.7;;
72123;SDS011;63818;37.134;-8.548;2023-03-14T17:21:06;13.9;;;4.8;;
72123;SDS011;63818;37.134;-8.548;2023-03-14T17:25:53;10.7;;;4.7;;
72123;SDS011;63818;37.134;-8.548;2023-03-14T17:30:40;8.7;;;4.5;;
72123;SDS011;63818;37.134;-8.548;2023-03-14T17:42:06;11.7;;;4.8;;
72123;SDS011;63818;37.134;-8.548;2023-03-14T17:52:17;10.9;;;4.8;;
72123;SDS011;63818;37.134;-8.548;2023-03-14T17:57:32;15.3;;;5.9;;
72123;SDS011;63818;37.134;-8.548;2023-03-14T18:07:41;11.4;;;5.0;;
72123;SDS011;63818;37.134;-8.548;2023-03-14T18:12:27;17.3;;;5.5;;
72123;SDS011;63818;37.134;-8.548;2023-03-14T18:22:28;19.5;;;6.4;;
72123;SDS011;63818;37.134;-8.548;2023-03-14T18:27:15;18.0;;;6.2;;
72123;SDS011;63818;37.134;-8.548;2023-03-14T18:32:15;22.0;;;6.5;;
72123;SDS011;63818;37.134;-8.548;2023-03-14T18:37:03;21.4;;;6.3;;
72123;SDS011;63818;37.134;-8.548;2023-03-14T18:41:50;25.8;;;6.4;;
72123;SDS011;63818;37.134;-8.548;2023-03-14T18:46:36;27.3;;;6.8;;
72123;SDS011;63818;37.134;-8.548;2023-03-14T18:51:24;27.2;;;6.8;;
72123;SDS011;63818;37.134;-8.548;2023-03-14T18:56:13;25.3;;;6.6;;
72123;SDS011;63818;37.134;-8.548;2023-03-14T19:01:01;17.7;;;6.0;;
72123;SDS011;63818;37.134;-8.548;2023-03-14T19:15:02;18.2;;;6.4;;
72123;SDS011;63818;37.134;-8.548;2023-03-14T19:20:09;23.5;;;6.8;;
72123;SDS011;63818;37.134;-8.548;2023-03-14T19:24:56;23.8;;;6.3;;
72123;SDS011;63818;37.134;-8.548;2023-03-14T19:30:11;24.8;;;8.0;;
72123;SDS011;63818;37.134;-8.548;2023-03-14T19:42:10;24.6;;;6.3;;
72123;SDS011;63818;37.134;-8.548;2023-03-14T19:46:59;26.0;;;6.9;;
72123;SDS011;63818;37.134;-8.548;2023-03-14T19:51:45;24.2;;;6.6;;
72123;SDS011;63818;37.134;-8.548;2023-03-14T20:01:48;22.2;;;7.0;;
72123;SDS011;63818;37.134;-8.548;2023-03-14T20:12:04;24.0;;;7.2;;
72123;SDS011;63818;37.134;-8.548;2023-03-14T20:16:50;22.3;;;6.9;;
72123;SDS011;63818;37.134;-8.548;2023-03-14T20:21:36;26.9;;;7.3;;
72123;SDS011;63818;37.134;-8.548;2023-03-14T20:26:22;27.5;;;7.3;;
72123;SDS011;63818;37.134;-8.548;2023-03-14T20:31:08;23.0;;;7.2;;
72123;SDS011;63818;37.134;-8.548;2023-03-14T20:35:54;20.6;;;7.6;;
72123;SDS011;63818;37.134;-8.548;2023-03-14T20:40:44;18.4;;;7.5;;
72123;SDS011;63818;37.134;-8.548;2023-03-14T20:45:30;20.6;;;7.0;;
72123;SDS011;63818;37.134;-8.548;2023-03-14T20:50:18;23.2;;;6.8;;
72123;SDS011;63818;37.134;-8.548;2023-03-14T20:55:05;22.7;;;7.0;;
72123;SDS011;63818;37.134;-8.548;2023-03-14T20:59:51;23.5;;;6.9;;
72123;SDS011;63818;37.134;-8.548;2023-03-14T21:04:37;22.9;;;7.0;;
72123;SDS011;63818;37.134;-8.548;2023-03-14T21:09:24;25.6;;;7.3;;
72123;SDS011;63818;37.134;-8.548;2023-03-14T21:14:11;26.4;;;7.1;;
72123;SDS011;63818;37.134;-8.548;2023-03-14T21:19:00;25.5;;;6.8;;
72123;SDS011;63818;37.134;-8.548;2023-03-14T21:23:48;24.9;;;6.8;;
72123;SDS011;63818;37.134;-8.548;2023-03-14T21:28:34;22.3;;;7.2;;
72123;SDS011;63818;37.134;-8.548;2023-03-14T21:33:20;19.1;;;7.2;;
72123;SDS011;63818;37.134;-8.548;2023-03-14T21:38:06;22.3;;;6.9;;
72123;SDS011;63818;37.134;-8.548;2023-03-14T21:42:52;26.6;;;6.9;;
72123;SDS011;63818;37.134;-8.548;2023-03-14T21:47:39;24.9;;;7.2;;
72123;SDS011;63818;37.134;-8.548;2023-03-14T21:52:25;26.1;;;7.7;;
72123;SDS011;63818;37.134;-8.548;2023-03-14T21:57:13;21.8;;;6.9;;
72123;SDS011;63818;37.134;-8.548;2023-03-14T22:02:00;16.4;;;6.2;;
72123;SDS011;63818;37.134;-8.548;2023-03-14T22:06:46;20.2;;;6.5;;
72123;SDS011;63818;37.134;-8.548;2023-03-14T22:11:31;22.9;;;7.3;;
72123;SDS011;63818;37.134;-8.548;2023-03-14T22:16:17;20.6;;;7.2;;
72123;SDS011;63818;37.134;-8.548;2023-03-14T22:21:04;22.9;;;6.9;;
72123;SDS011;63818;37.134;-8.548;2023-03-14T22:25:52;24.1;;;7.2;;
72123;SDS011;63818;37.134;-8.548;2023-03-14T22:30:41;19.2;;;6.9;;
72123;SDS011;63818;37.134;-8.548;2023-03-14T22:35:31;23.3;;;7.3;;
72123;SDS011;63818;37.134;-8.548;2023-03-14T22:40:20;28.4;;;7.1;;
72123;SDS011;63818;37.134;-8.548;2023-03-14T22:45:08;22.2;;;7.0;;
72123;SDS011;63818;37.134;-8.548;2023-03-14T22:49:54;19.1;;;7.3;;
72123;SDS011;63818;37.134;-8.548;2023-03-14T22:54:40;22.5;;;7.1;;
72123;SDS011;63818;37.134;-8.548;2023-03-14T22:59:29;23.1;;;6.8;;
72123;SDS011;63818;37.134;-8.548;2023-03-14T23:04:15;24.5;;;7.1;;
72123;SDS011;63818;37.134;-8.548;2023-03-14T23:09:03;22.9;;;7.1;;
72123;SDS011;63818;37.134;-8.548;2023-03-14T23:13:49;19.6;;;7.2;;
72123;SDS011;63818;37.134;-8.548;2023-03-14T23:18:36;26.4;;;8.0;;
72123;SDS011;63818;37.134;-8.548;2023-03-14T23:23:24;32.4;;;7.8;;
72123;SDS011;63818;37.134;-8.548;2023-03-14T23:28:11;17.0;;;7.1;;
72123;SDS011;63818;37.134;-8.548;2023-03-14T23:33:00;20.4;;;7.0;;
72123;SDS011;63818;37.134;-8.548;2023-03-14T23:37:48;24.0;;;7.3;;
72123;SDS011;63818;37.134;-8.548;2023-03-14T23:42:37;20.7;;;6.6;;
72123;SDS011;63818;37.134;-8.548;2023-03-14T23:52:22;21.1;;;6.9;;
72123;SDS011;63818;37.134;-8.548;2023-03-14T23:57:12;19.2;;;6.4;;
